sensor_id;sensor_type;location;lat;lon;timestamp;temperature;humidity
7445;DHT22;3764;48.126;11.594;2022-09-17T00:00:21;12.20;99.90
7445;DHT22;3764;48.126;11.594;2022-09-17T00:02:49;12.10;99.90
7445;DHT22;3764;48.126;11.594;2022-09-17T00:05:20;12.10;99.90
7445;DHT22;3764;48.126;11.594;2022-09-17T00:07:48;12.10;99.90
7445;DHT22;3764;48.126;11.594;2022-09-17T00:10:16;12.10;99.90
7445;DHT22;3764;48.126;11.594;2022-09-17T00:12:43;12.10;99.90
7445;DHT22;3764;48.126;11.594;2022-09-17T00:15:10;12.10;99.90
7445;DHT22;3764;48.126;11.594;2022-09-17T00:17:39;12.10;99.90
7445;DHT22;3764;48.126;11.594;2022-09-17T00:20:07;12.10;99.90
7445;DHT22;3764;48.126;11.594;2022-09-17T00:22:35;12.10;99.90
7445;DHT22;3764;48.126;11.594;2022-09-17T00:25:03;12.10;99.90
7445;DHT22;3764;48.126;11.594;2022-09-17T00:27:31;12.10;99.90
7445;DHT22;3764;48.126;11.594;2022-09-17T00:29:58;12.10;99.90
7445;DHT22;3764;48.126;11.594;2022-09-17T00:32:25;12.10;99.90
7445;DHT22;3764;48.126;11.594;2022-09-17T00:34:54;12.10;99.90
7445;DHT22;3764;48.126;11.594;2022-09-17T00:37:21;12.10;99.90
7445;DHT22;3764;48.126;11.594;2022-09-17T00:39:48;12.10;99.90
7445;DHT22;3764;48.126;11.594;2022-09-17T00:42:16;12.10;99.90
7445;DHT22;3764;48.126;11.594;2022-09-17T00:44:48;12.10;99.90
7445;DHT22;3764;48.126;11.594;2022-09-17T00:47:23;12.10;99.90
7445;DHT22;3764;48.126;11.594;2022-09-17T00:49:54;12.10;99.90
7445;DHT22;3764;48.126;11.594;2022-09-17T00:52:26;12.10;99.90
7445;DHT22;3764;48.126;11.594;2022-09-17T00:55:00;12.00;99.90
7445;DHT22;3764;48.126;11.594;2022-09-17T00:57:30;12.00;99.90
7445;DHT22;3764;48.126;11.594;2022-09-17T00:59:57;12.00;99.90
7445;DHT22;3764;48.126;11.594;2022-09-17T01:02:25;12.00;99.90
7445;DHT22;3764;48.126;11.594;2022-09-17T01:04:54;12.00;99.90
7445;DHT22;3764;48.126;11.594;2022-09-17T01:10:35;12.00;99.90
7445;DHT22;3764;48.126;11.594;2022-09-17T01:13:11;12.00;99.90
7445;DHT22;3764;48.126;11.594;2022-09-17T01:15:48;11.90;99.90
7445;DHT22;3764;48.126;11.594;2022-09-17T01:18:29;12.00;99.90
7445;DHT22;3764;48.126;11.594;2022-09-17T01:21:28;11.90;99.90
7445;DHT22;3764;48.126;11.594;2022-09-17T01:24:24;12.00;99.90
7445;DHT22;3764;48.126;11.594;2022-09-17T01:27:43;11.90;99.90
7445;DHT22;3764;48.126;11.594;2022-09-17T01:30:27;11.90;99.90
7445;DHT22;3764;48.126;11.594;2022-09-17T01:32:59;11.90;99.90
7445;DHT22;3764;48.126;11.594;2022-09-17T01:35:35;11.90;99.90
7445;DHT22;3764;48.126;11.594;2022-09-17T01:38:09;11.90;99.90
7445;DHT22;3764;48.126;11.594;2022-09-17T01:40:40;11.90;99.90
7445;DHT22;3764;48.126;11.594;2022-09-17T01:43:17;11.90;99.90
7445;DHT22;3764;48.126;11.594;2022-09-17T01:45:50;11.90;99.90
7445;DHT22;3764;48.126;11.594;2022-09-17T01:48:19;11.80;99.90
7445;DHT22;3764;48.126;11.594;2022-09-17T01:50:50;11.80;99.90
7445;DHT22;3764;48.126;11.594;2022-09-17T01:53:21;11.80;99.90
7445;DHT22;3764;48.126;11.594;2022-09-17T01:55:51;11.80;99.90
7445;DHT22;3764;48.126;11.594;2022-09-17T01:58:22;11.70;99.90
7445;DHT22;3764;48.126;11.594;2022-09-17T02:00:56;11.80;99.90
7445;DHT22;3764;48.126;11.594;2022-09-17T02:03:28;11.80;99.90
7445;DHT22;3764;48.126;11.594;2022-09-17T02:05:59;11.80;99.90
7445;DHT22;3764;48.126;11.594;2022-09-17T02:08:29;11.80;99.90
7445;DHT22;3764;48.126;11.594;2022-09-17T02:11:03;11.80;99.90
7445;DHT22;3764;48.126;11.594;2022-09-17T02:13:36;11.80;99.90
7445;DHT22;3764;48.126;11.594;2022-09-17T02:16:11;11.80;99.90
7445;DHT22;3764;48.126;11.594;2022-09-17T02:18:43;11.70;99.90
7445;DHT22;3764;48.126;11.594;2022-09-17T02:21:16;11.70;99.90
7445;DHT22;3764;48.126;11.594;2022-09-17T02:23:51;11.60;99.90
7445;DHT22;3764;48.126;11.594;2022-09-17T02:26:19;11.60;99.90
7445;DHT22;3764;48.126;11.594;2022-09-17T02:28:52;11.60;99.90
7445;DHT22;3764;48.126;11.594;2022-09-17T02:31:22;11.60;99.90
7445;DHT22;3764;48.126;11.594;2022-09-17T02:33:51;11.50;99.90
7445;DHT22;3764;48.126;11.594;2022-09-17T02:36:19;11.60;99.90
7445;DHT22;3764;48.126;11.594;2022-09-17T02:38:57;11.60;99.90
7445;DHT22;3764;48.126;11.594;2022-09-17T02:41:35;11.60;99.90
7445;DHT22;3764;48.126;11.594;2022-09-17T02:44:11;11.60;99.90
7445;DHT22;3764;48.126;11.594;2022-09-17T02:46:58;11.50;99.90
7445;DHT22;3764;48.126;11.594;2022-09-17T02:49:48;11.50;99.90
7445;DHT22;3764;48.126;11.594;2022-09-17T02:52:31;11.50;99.90
7445;DHT22;3764;48.126;11.594;2022-09-17T02:55:06;11.50;99.90
7445;DHT22;3764;48.126;11.594;2022-09-17T02:57:39;11.50;99.90
7445;DHT22;3764;48.126;11.594;2022-09-17T03:00:13;11.50;99.90
7445;DHT22;3764;48.126;11.594;2022-09-17T03:02:44;11.40;99.90
7445;DHT22;3764;48.126;11.594;2022-09-17T03:05:17;11.40;99.90
7445;DHT22;3764;48.126;11.594;2022-09-17T03:07:44;11.40;99.90
7445;DHT22;3764;48.126;11.594;2022-09-17T03:10:12;11.40;99.90
7445;DHT22;3764;48.126;11.594;2022-09-17T03:12:39;11.30;99.90
7445;DHT22;3764;48.126;11.594;2022-09-17T03:15:07;11.30;99.90
7445;DHT22;3764;48.126;11.594;2022-09-17T03:17:35;11.30;99.90
7445;DHT22;3764;48.126;11.594;2022-09-17T03:20:04;11.30;99.90
7445;DHT22;3764;48.126;11.594;2022-09-17T03:22:32;11.30;99.90
7445;DHT22;3764;48.126;11.594;2022-09-17T03:24:59;11.30;99.90
7445;DHT22;3764;48.126;11.594;2022-09-17T03:27:26;11.30;99.90
7445;DHT22;3764;48.126;11.594;2022-09-17T03:29:53;11.20;99.90
7445;DHT22;3764;48.126;11.594;2022-09-17T03:32:20;11.30;99.90
7445;DHT22;3764;48.126;11.594;2022-09-17T03:34:47;11.20;99.90
7445;DHT22;3764;48.126;11.594;2022-09-17T03:37:16;11.20;99.90
7445;DHT22;3764;48.126;11.594;2022-09-17T03:39:43;11.20;99.90
7445;DHT22;3764;48.126;11.594;2022-09-17T03:42:10;11.20;99.90
7445;DHT22;3764;48.126;11.594;2022-09-17T03:44:37;11.20;99.90
7445;DHT22;3764;48.126;11.594;2022-09-17T03:47:04;11.20;99.90
7445;DHT22;3764;48.126;11.594;2022-09-17T03:49:31;11.20;99.90
7445;DHT22;3764;48.126;11.594;2022-09-17T03:51:59;11.10;99.90
7445;DHT22;3764;48.126;11.594;2022-09-17T03:54:27;11.10;99.90
7445;DHT22;3764;48.126;11.594;2022-09-17T03:56:54;11.20;99.90
7445;DHT22;3764;48.126;11.594;2022-09-17T03:59:21;11.20;99.90
7445;DHT22;3764;48.126;11.594;2022-09-17T04:01:48;11.20;99.90
7445;DHT22;3764;48.126;11.594;2022-09-17T04:04:15;11.20;99.90
7445;DHT22;3764;48.126;11.594;2022-09-17T04:06:43;11.20;99.90
7445;DHT22;3764;48.126;11.594;2022-09-17T04:09:10;11.10;99.90
7445;DHT22;3764;48.126;11.594;2022-09-17T04:11:38;11.10;99.90
7445;DHT22;3764;48.126;11.594;2022-09-17T04:14:05;11.10;99.90
7445;DHT22;3764;48.126;11.594;2022-09-17T04:16:32;11.10;99.90
7445;DHT22;3764;48.126;11.594;2022-09-17T04:18:59;11.10;99.90
7445;DHT22;3764;48.126;11.594;2022-09-17T04:21:26;11.10;99.90
7445;DHT22;3764;48.126;11.594;2022-09-17T04:23:53;11.10;99.90
7445;DHT22;3764;48.126;11.594;2022-09-17T04:26:20;11.10;99.90
7445;DHT22;3764;48.126;11.594;2022-09-17T04:28:49;11.00;99.90
7445;DHT22;3764;48.126;11.594;2022-09-17T04:31:16;11.00;99.90
7445;DHT22;3764;48.126;11.594;2022-09-17T04:33:43;11.00;99.90
7445;DHT22;3764;48.126;11.594;2022-09-17T04:36:10;11.00;99.90
7445;DHT22;3764;48.126;11.594;2022-09-17T04:38:37;11.00;99.90
7445;DHT22;3764;48.126;11.594;2022-09-17T04:41:06;11.00;99.90
7445;DHT22;3764;48.126;11.594;2022-09-17T04:43:33;11.10;99.90
7445;DHT22;3764;48.126;11.594;2022-09-17T04:46:01;11.00;99.90
7445;DHT22;3764;48.126;11.594;2022-09-17T04:48:29;11.10;99.90
7445;DHT22;3764;48.126;11.594;2022-09-17T04:50:56;11.10;99.90
7445;DHT22;3764;48.126;11.594;2022-09-17T04:53:23;11.10;99.90
7445;DHT22;3764;48.126;11.594;2022-09-17T04:55:50;11.10;99.90
7445;DHT22;3764;48.126;11.594;2022-09-17T04:58:17;11.10;99.90
7445;DHT22;3764;48.126;11.594;2022-09-17T05:00:44;11.10;99.90
7445;DHT22;3764;48.126;11.594;2022-09-17T05:03:12;11.00;99.90
7445;DHT22;3764;48.126;11.594;2022-09-17T05:05:39;11.00;99.90
7445;DHT22;3764;48.126;11.594;2022-09-17T05:08:06;10.90;99.90
7445;DHT22;3764;48.126;11.594;2022-09-17T05:10:33;10.90;99.90
7445;DHT22;3764;48.126;11.594;2022-09-17T05:13:00;10.90;99.90
7445;DHT22;3764;48.126;11.594;2022-09-17T05:15:27;10.90;99.90
7445;DHT22;3764;48.126;11.594;2022-09-17T05:17:54;10.90;99.90
7445;DHT22;3764;48.126;11.594;2022-09-17T05:20:23;10.90;99.90
7445;DHT22;3764;48.126;11.594;2022-09-17T05:22:51;10.90;99.90
7445;DHT22;3764;48.126;11.594;2022-09-17T05:25:20;10.90;99.90
7445;DHT22;3764;48.126;11.594;2022-09-17T05:27:48;10.90;99.90
7445;DHT22;3764;48.126;11.594;2022-09-17T05:30:15;10.90;99.90
7445;DHT22;3764;48.126;11.594;2022-09-17T05:32:42;10.90;99.90
7445;DHT22;3764;48.126;11.594;2022-09-17T05:35:09;10.90;99.90
7445;DHT22;3764;48.126;11.594;2022-09-17T05:37:38;10.90;99.90
7445;DHT22;3764;48.126;11.594;2022-09-17T05:40:05;10.90;99.90
7445;DHT22;3764;48.126;11.594;2022-09-17T05:42:32;10.90;99.90
7445;DHT22;3764;48.126;11.594;2022-09-17T05:44:59;10.90;99.90
7445;DHT22;3764;48.126;11.594;2022-09-17T05:47:26;11.00;99.90
7445;DHT22;3764;48.126;11.594;2022-09-17T05:49:53;11.00;99.90
7445;DHT22;3764;48.126;11.594;2022-09-17T05:52:20;11.00;99.90
7445;DHT22;3764;48.126;11.594;2022-09-17T05:54:48;11.00;99.90
7445;DHT22;3764;48.126;11.594;2022-09-17T05:57:15;10.90;99.90
7445;DHT22;3764;48.126;11.594;2022-09-17T05:59:42;11.00;99.90
7445;DHT22;3764;48.126;11.594;2022-09-17T06:02:10;11.00;99.90
7445;DHT22;3764;48.126;11.594;2022-09-17T06:04:38;10.90;99.90
7445;DHT22;3764;48.126;11.594;2022-09-17T06:07:05;10.90;99.90
7445;DHT22;3764;48.126;11.594;2022-09-17T06:09:33;10.90;99.90
7445;DHT22;3764;48.126;11.594;2022-09-17T06:12:02;10.90;99.90
7445;DHT22;3764;48.126;11.594;2022-09-17T06:14:29;10.90;99.90
7445;DHT22;3764;48.126;11.594;2022-09-17T06:16:56;10.80;99.90
7445;DHT22;3764;48.126;11.594;2022-09-17T06:19:23;10.80;99.90
7445;DHT22;3764;48.126;11.594;2022-09-17T06:21:50;10.80;99.90
7445;DHT22;3764;48.126;11.594;2022-09-17T06:24:17;10.80;99.90
7445;DHT22;3764;48.126;11.594;2022-09-17T06:26:44;10.70;99.90
7445;DHT22;3764;48.126;11.594;2022-09-17T06:29:12;10.80;99.90
7445;DHT22;3764;48.126;11.594;2022-09-17T06:31:40;10.70;99.90
7445;DHT22;3764;48.126;11.594;2022-09-17T06:34:09;10.70;99.90
7445;DHT22;3764;48.126;11.594;2022-09-17T06:36:36;10.70;99.90
7445;DHT22;3764;48.126;11.594;2022-09-17T06:39:03;10.80;99.90
7445;DHT22;3764;48.126;11.594;2022-09-17T06:41:30;10.80;99.90
7445;DHT22;3764;48.126;11.594;2022-09-17T06:43:58;10.80;99.90
7445;DHT22;3764;48.126;11.594;2022-09-17T06:46:27;10.80;99.90
7445;DHT22;3764;48.126;11.594;2022-09-17T06:48:54;10.80;99.90
7445;DHT22;3764;48.126;11.594;2022-09-17T06:51:21;10.80;99.90
7445;DHT22;3764;48.126;11.594;2022-09-17T06:53:48;10.90;99.90
7445;DHT22;3764;48.126;11.594;2022-09-17T06:56:16;10.90;99.90
7445;DHT22;3764;48.126;11.594;2022-09-17T06:58:43;10.90;99.90
7445;DHT22;3764;48.126;11.594;2022-09-17T07:01:10;10.90;99.90
7445;DHT22;3764;48.126;11.594;2022-09-17T07:03:40;10.90;99.90
7445;DHT22;3764;48.126;11.594;2022-09-17T07:06:09;10.80;99.90
7445;DHT22;3764;48.126;11.594;2022-09-17T07:08:38;10.80;99.90
7445;DHT22;3764;48.126;11.594;2022-09-17T07:11:06;10.80;99.90
7445;DHT22;3764;48.126;11.594;2022-09-17T07:13:34;10.80;99.90
7445;DHT22;3764;48.126;11.594;2022-09-17T07:16:02;10.80;99.90
7445;DHT22;3764;48.126;11.594;2022-09-17T07:18:30;10.90;99.90
7445;DHT22;3764;48.126;11.594;2022-09-17T07:21:00;10.90;99.90
7445;DHT22;3764;48.126;11.594;2022-09-17T07:23:29;10.90;99.90
7445;DHT22;3764;48.126;11.594;2022-09-17T07:25:58;10.90;99.90
7445;DHT22;3764;48.126;11.594;2022-09-17T07:28:25;10.90;99.90
7445;DHT22;3764;48.126;11.594;2022-09-17T07:30:53;10.90;99.90
7445;DHT22;3764;48.126;11.594;2022-09-17T07:33:23;10.90;99.90
7445;DHT22;3764;48.126;11.594;2022-09-17T07:35:55;10.90;99.90
7445;DHT22;3764;48.126;11.594;2022-09-17T07:38:25;10.90;99.90
7445;DHT22;3764;48.126;11.594;2022-09-17T07:40:56;10.90;99.90
7445;DHT22;3764;48.126;11.594;2022-09-17T07:43:24;10.90;99.90
7445;DHT22;3764;48.126;11.594;2022-09-17T07:45:52;10.90;99.90
7445;DHT22;3764;48.126;11.594;2022-09-17T07:48:19;11.00;99.90
7445;DHT22;3764;48.126;11.594;2022-09-17T07:50:47;11.00;99.90
7445;DHT22;3764;48.126;11.594;2022-09-17T07:53:14;11.10;99.90
7445;DHT22;3764;48.126;11.594;2022-09-17T07:55:50;11.00;99.90
7445;DHT22;3764;48.126;11.594;2022-09-17T07:58:17;11.10;99.90
7445;DHT22;3764;48.126;11.594;2022-09-17T08:00:44;11.10;99.90
7445;DHT22;3764;48.126;11.594;2022-09-17T08:03:11;11.10;99.90
7445;DHT22;3764;48.126;11.594;2022-09-17T08:05:38;11.10;99.90
7445;DHT22;3764;48.126;11.594;2022-09-17T08:08:05;11.20;99.90
7445;DHT22;3764;48.126;11.594;2022-09-17T08:10:32;11.20;99.90
7445;DHT22;3764;48.126;11.594;2022-09-17T08:13:02;11.20;99.90
7445;DHT22;3764;48.126;11.594;2022-09-17T08:15:29;11.20;99.90
7445;DHT22;3764;48.126;11.594;2022-09-17T08:17:56;11.20;99.90
7445;DHT22;3764;48.126;11.594;2022-09-17T08:20:23;11.10;99.90
7445;DHT22;3764;48.126;11.594;2022-09-17T08:22:58;11.10;99.90
7445;DHT22;3764;48.126;11.594;2022-09-17T08:25:25;11.00;99.90
7445;DHT22;3764;48.126;11.594;2022-09-17T08:27:53;11.10;99.90
7445;DHT22;3764;48.126;11.594;2022-09-17T08:30:22;11.00;99.90
7445;DHT22;3764;48.126;11.594;2022-09-17T08:32:49;11.10;99.90
7445;DHT22;3764;48.126;11.594;2022-09-17T08:35:17;11.10;99.90
7445;DHT22;3764;48.126;11.594;2022-09-17T08:37:44;11.10;99.90
7445;DHT22;3764;48.126;11.594;2022-09-17T08:40:17;11.20;99.90
7445;DHT22;3764;48.126;11.594;2022-09-17T08:42:51;11.20;99.90
7445;DHT22;3764;48.126;11.594;2022-09-17T08:45:22;11.20;99.90
7445;DHT22;3764;48.126;11.594;2022-09-17T08:47:53;11.20;99.90
7445;DHT22;3764;48.126;11.594;2022-09-17T08:50:26;11.20;99.90
7445;DHT22;3764;48.126;11.594;2022-09-17T08:53:03;11.20;99.90
7445;DHT22;3764;48.126;11.594;2022-09-17T08:55:39;11.30;99.90
7445;DHT22;3764;48.126;11.594;2022-09-17T08:58:39;11.30;99.90
7445;DHT22;3764;48.126;11.594;2022-09-17T09:01:20;11.30;99.90
7445;DHT22;3764;48.126;11.594;2022-09-17T09:06:52;11.30;99.90
7445;DHT22;3764;48.126;11.594;2022-09-17T09:09:23;11.30;99.90
7445;DHT22;3764;48.126;11.594;2022-09-17T09:11:56;11.30;99.90
7445;DHT22;3764;48.126;11.594;2022-09-17T09:16:55;11.30;99.90
7445;DHT22;3764;48.126;11.594;2022-09-17T09:19:25;11.20;99.90
7445;DHT22;3764;48.126;11.594;2022-09-17T09:22:01;11.20;99.90
7445;DHT22;3764;48.126;11.594;2022-09-17T09:24:39;11.30;99.90
7445;DHT22;3764;48.126;11.594;2022-09-17T09:27:15;11.30;99.90
7445;DHT22;3764;48.126;11.594;2022-09-17T09:29:51;11.40;99.90
7445;DHT22;3764;48.126;11.594;2022-09-17T09:32:35;11.40;99.90
7445;DHT22;3764;48.126;11.594;2022-09-17T09:35:15;11.40;99.90
7445;DHT22;3764;48.126;11.594;2022-09-17T09:37:49;11.40;99.90
7445;DHT22;3764;48.126;11.594;2022-09-17T09:40:27;11.50;99.90
7445;DHT22;3764;48.126;11.594;2022-09-17T09:42:59;11.40;99.90
7445;DHT22;3764;48.126;11.594;2022-09-17T09:45:37;11.50;99.90
7445;DHT22;3764;48.126;11.594;2022-09-17T09:48:14;11.50;99.90
7445;DHT22;3764;48.126;11.594;2022-09-17T09:50:48;11.50;99.90
7445;DHT22;3764;48.126;11.594;2022-09-17T09:53:23;11.50;99.90
7445;DHT22;3764;48.126;11.594;2022-09-17T09:56:04;11.50;99.90
7445;DHT22;3764;48.126;11.594;2022-09-17T09:58:35;11.40;99.90
7445;DHT22;3764;48.126;11.594;2022-09-17T10:01:02;11.40;99.90
7445;DHT22;3764;48.126;11.594;2022-09-17T10:03:32;11.50;99.90
7445;DHT22;3764;48.126;11.594;2022-09-17T10:06:02;11.50;99.90
7445;DHT22;3764;48.126;11.594;2022-09-17T10:08:33;11.40;99.90
7445;DHT22;3764;48.126;11.594;2022-09-17T10:11:03;11.40;99.90
7445;DHT22;3764;48.126;11.594;2022-09-17T10:13:32;11.40;99.90
7445;DHT22;3764;48.126;11.594;2022-09-17T10:16:15;11.40;99.90
7445;DHT22;3764;48.126;11.594;2022-09-17T10:18:44;11.30;99.90
7445;DHT22;3764;48.126;11.594;2022-09-17T10:21:18;11.30;99.90
7445;DHT22;3764;48.126;11.594;2022-09-17T10:23:46;11.20;99.90
7445;DHT22;3764;48.126;11.594;2022-09-17T10:26:21;11.10;99.90
7445;DHT22;3764;48.126;11.594;2022-09-17T10:28:51;11.10;99.90
7445;DHT22;3764;48.126;11.594;2022-09-17T10:31:18;11.00;99.90
7445;DHT22;3764;48.126;11.594;2022-09-17T10:33:55;11.00;99.90
7445;DHT22;3764;48.126;11.594;2022-09-17T10:36:44;10.90;99.90
7445;DHT22;3764;48.126;11.594;2022-09-17T10:39:32;10.90;99.90
7445;DHT22;3764;48.126;11.594;2022-09-17T10:42:02;10.80;99.90
7445;DHT22;3764;48.126;11.594;2022-09-17T10:44:31;10.80;99.90
7445;DHT22;3764;48.126;11.594;2022-09-17T10:47:10;10.80;99.90
7445;DHT22;3764;48.126;11.594;2022-09-17T10:49:41;10.70;99.90
7445;DHT22;3764;48.126;11.594;2022-09-17T10:52:13;10.80;99.90
7445;DHT22;3764;48.126;11.594;2022-09-17T10:58:07;10.80;99.90
7445;DHT22;3764;48.126;11.594;2022-09-17T11:00:45;10.80;99.90
7445;DHT22;3764;48.126;11.594;2022-09-17T11:03:48;10.80;99.90
7445;DHT22;3764;48.126;11.594;2022-09-17T11:06:41;10.80;99.90
7445;DHT22;3764;48.126;11.594;2022-09-17T11:09:17;10.80;99.90
7445;DHT22;3764;48.126;11.594;2022-09-17T11:12:00;10.80;99.90
7445;DHT22;3764;48.126;11.594;2022-09-17T11:14:40;10.80;99.90
7445;DHT22;3764;48.126;11.594;2022-09-17T11:17:17;10.80;99.90
7445;DHT22;3764;48.126;11.594;2022-09-17T11:19:55;10.70;99.90
7445;DHT22;3764;48.126;11.594;2022-09-17T11:22:32;10.80;99.90
7445;DHT22;3764;48.126;11.594;2022-09-17T11:25:26;10.80;99.90
7445;DHT22;3764;48.126;11.594;2022-09-17T11:28:05;10.70;99.90
7445;DHT22;3764;48.126;11.594;2022-09-17T11:30:46;10.70;99.90
7445;DHT22;3764;48.126;11.594;2022-09-17T11:33:46;10.70;99.90
7445;DHT22;3764;48.126;11.594;2022-09-17T11:36:20;10.70;99.90
7445;DHT22;3764;48.126;11.594;2022-09-17T11:38:50;10.70;99.90
7445;DHT22;3764;48.126;11.594;2022-09-17T11:41:21;10.70;99.90
7445;DHT22;3764;48.126;11.594;2022-09-17T11:43:58;10.70;99.90
7445;DHT22;3764;48.126;11.594;2022-09-17T11:46:29;10.60;99.90
7445;DHT22;3764;48.126;11.594;2022-09-17T11:49:02;10.60;99.90
7445;DHT22;3764;48.126;11.594;2022-09-17T11:51:33;10.60;99.90
7445;DHT22;3764;48.126;11.594;2022-09-17T11:54:06;10.60;99.90
7445;DHT22;3764;48.126;11.594;2022-09-17T11:56:37;10.60;99.90
7445;DHT22;3764;48.126;11.594;2022-09-17T11:59:13;10.70;99.90
7445;DHT22;3764;48.126;11.594;2022-09-17T12:01:46;10.70;99.90
7445;DHT22;3764;48.126;11.594;2022-09-17T12:04:36;10.80;99.90
7445;DHT22;3764;48.126;11.594;2022-09-17T12:07:14;10.80;99.90
7445;DHT22;3764;48.126;11.594;2022-09-17T12:09:50;10.80;99.90
7445;DHT22;3764;48.126;11.594;2022-09-17T12:12:22;10.80;99.90
7445;DHT22;3764;48.126;11.594;2022-09-17T12:14:53;10.80;99.90
7445;DHT22;3764;48.126;11.594;2022-09-17T12:17:24;10.90;99.90
7445;DHT22;3764;48.126;11.594;2022-09-17T12:19:55;10.90;99.90
7445;DHT22;3764;48.126;11.594;2022-09-17T12:22:24;10.90;99.90
7445;DHT22;3764;48.126;11.594;2022-09-17T12:24:54;10.90;99.90
7445;DHT22;3764;48.126;11.594;2022-09-17T12:27:34;10.80;99.90
7445;DHT22;3764;48.126;11.594;2022-09-17T12:30:14;10.70;99.90
7445;DHT22;3764;48.126;11.594;2022-09-17T12:33:00;10.70;99.90
7445;DHT22;3764;48.126;11.594;2022-09-17T12:35:47;10.70;99.90
7445;DHT22;3764;48.126;11.594;2022-09-17T12:38:30;10.70;99.90
7445;DHT22;3764;48.126;11.594;2022-09-17T12:41:06;10.70;99.90
7445;DHT22;3764;48.126;11.594;2022-09-17T12:43:51;10.70;99.90
7445;DHT22;3764;48.126;11.594;2022-09-17T12:46:32;10.70;99.90
7445;DHT22;3764;48.126;11.594;2022-09-17T12:49:23;10.70;99.90
7445;DHT22;3764;48.126;11.594;2022-09-17T12:51:54;10.80;99.90
7445;DHT22;3764;48.126;11.594;2022-09-17T12:57:24;10.80;99.90
7445;DHT22;3764;48.126;11.594;2022-09-17T12:59:57;10.90;99.90
7445;DHT22;3764;48.126;11.594;2022-09-17T13:02:31;10.90;99.90
7445;DHT22;3764;48.126;11.594;2022-09-17T13:05:27;10.90;99.90
7445;DHT22;3764;48.126;11.594;2022-09-17T13:08:24;10.90;99.90
7445;DHT22;3764;48.126;11.594;2022-09-17T13:13:54;10.90;99.90
7445;DHT22;3764;48.126;11.594;2022-09-17T13:16:27;10.90;99.90
7445;DHT22;3764;48.126;11.594;2022-09-17T13:19:01;10.90;99.90
7445;DHT22;3764;48.126;11.594;2022-09-17T13:21:33;10.90;99.90
7445;DHT22;3764;48.126;11.594;2022-09-17T13:24:14;10.90;99.90
7445;DHT22;3764;48.126;11.594;2022-09-17T13:26:41;10.90;99.90
7445;DHT22;3764;48.126;11.594;2022-09-17T13:29:11;10.90;99.90
7445;DHT22;3764;48.126;11.594;2022-09-17T13:31:48;11.00;99.90
7445;DHT22;3764;48.126;11.594;2022-09-17T13:34:30;11.00;99.90
7445;DHT22;3764;48.126;11.594;2022-09-17T13:37:01;11.00;99.90
7445;DHT22;3764;48.126;11.594;2022-09-17T13:39:46;11.00;99.90
7445;DHT22;3764;48.126;11.594;2022-09-17T13:42:19;11.00;99.90
7445;DHT22;3764;48.126;11.594;2022-09-17T13:44:50;11.00;99.90
7445;DHT22;3764;48.126;11.594;2022-09-17T13:47:23;11.00;99.90
7445;DHT22;3764;48.126;11.594;2022-09-17T13:49:56;11.00;99.90
7445;DHT22;3764;48.126;11.594;2022-09-17T13:52:31;11.00;99.90
7445;DHT22;3764;48.126;11.594;2022-09-17T13:55:00;11.00;99.90
7445;DHT22;3764;48.126;11.594;2022-09-17T13:57:28;11.00;99.90
7445;DHT22;3764;48.126;11.594;2022-09-17T14:00:00;11.00;99.90
7445;DHT22;3764;48.126;11.594;2022-09-17T14:02:33;11.00;99.90
7445;DHT22;3764;48.126;11.594;2022-09-17T14:05:30;11.00;99.90
7445;DHT22;3764;48.126;11.594;2022-09-17T14:08:13;11.00;99.90
7445;DHT22;3764;48.126;11.594;2022-09-17T14:10:42;11.00;99.90
7445;DHT22;3764;48.126;11.594;2022-09-17T14:13:40;11.10;99.90
7445;DHT22;3764;48.126;11.594;2022-09-17T14:16:46;11.20;99.90
7445;DHT22;3764;48.126;11.594;2022-09-17T14:19:38;11.30;99.90
7445;DHT22;3764;48.126;11.594;2022-09-17T14:22:13;11.40;99.90
7445;DHT22;3764;48.126;11.594;2022-09-17T14:24:49;11.50;99.90
7445;DHT22;3764;48.126;11.594;2022-09-17T14:27:39;11.60;99.90
7445;DHT22;3764;48.126;11.594;2022-09-17T14:30:13;11.60;99.90
7445;DHT22;3764;48.126;11.594;2022-09-17T14:32:46;11.60;99.90
7445;DHT22;3764;48.126;11.594;2022-09-17T14:35:18;11.70;99.90
7445;DHT22;3764;48.126;11.594;2022-09-17T14:37:52;11.70;99.90
7445;DHT22;3764;48.126;11.594;2022-09-17T14:40:21;11.70;99.90
7445;DHT22;3764;48.126;11.594;2022-09-17T14:42:52;11.70;99.90
7445;DHT22;3764;48.126;11.594;2022-09-17T14:45:25;11.70;99.90
7445;DHT22;3764;48.126;11.594;2022-09-17T14:48:29;11.70;99.90
7445;DHT22;3764;48.126;11.594;2022-09-17T14:51:21;11.60;99.90
7445;DHT22;3764;48.126;11.594;2022-09-17T14:54:07;11.70;99.90
7445;DHT22;3764;48.126;11.594;2022-09-17T14:56:47;11.60;99.90
7445;DHT22;3764;48.126;11.594;2022-09-17T14:59:21;11.60;99.90
7445;DHT22;3764;48.126;11.594;2022-09-17T15:01:49;11.60;99.90
7445;DHT22;3764;48.126;11.594;2022-09-17T15:04:23;11.60;99.90
7445;DHT22;3764;48.126;11.594;2022-09-17T15:06:50;11.60;99.90
7445;DHT22;3764;48.126;11.594;2022-09-17T15:09:21;11.60;99.90
7445;DHT22;3764;48.126;11.594;2022-09-17T15:11:52;11.70;99.90
7445;DHT22;3764;48.126;11.594;2022-09-17T15:14:24;11.60;99.90
7445;DHT22;3764;48.126;11.594;2022-09-17T15:16:55;11.60;99.90
7445;DHT22;3764;48.126;11.594;2022-09-17T15:19:28;11.60;99.90
7445;DHT22;3764;48.126;11.594;2022-09-17T15:21:59;11.60;99.90
7445;DHT22;3764;48.126;11.594;2022-09-17T15:24:36;11.60;99.90
7445;DHT22;3764;48.126;11.594;2022-09-17T15:27:10;11.60;99.90
7445;DHT22;3764;48.126;11.594;2022-09-17T15:29:39;11.50;99.90
7445;DHT22;3764;48.126;11.594;2022-09-17T15:32:09;11.40;99.90
7445;DHT22;3764;48.126;11.594;2022-09-17T15:34:38;11.40;99.90
7445;DHT22;3764;48.126;11.594;2022-09-17T15:37:14;11.40;99.90
7445;DHT22;3764;48.126;11.594;2022-09-17T15:39:47;11.30;99.90
7445;DHT22;3764;48.126;11.594;2022-09-17T15:42:21;11.20;99.90
7445;DHT22;3764;48.126;11.594;2022-09-17T15:44:49;11.20;99.90
7445;DHT22;3764;48.126;11.594;2022-09-17T15:47:51;11.10;99.90
7445;DHT22;3764;48.126;11.594;2022-09-17T15:50:21;11.10;99.90
7445;DHT22;3764;48.126;11.594;2022-09-17T15:52:49;11.10;99.90
7445;DHT22;3764;48.126;11.594;2022-09-17T15:55:30;11.10;99.90
7445;DHT22;3764;48.126;11.594;2022-09-17T15:57:58;11.10;99.90
7445;DHT22;3764;48.126;11.594;2022-09-17T16:00:27;11.10;99.90
7445;DHT22;3764;48.126;11.594;2022-09-17T16:02:54;11.10;99.90
7445;DHT22;3764;48.126;11.594;2022-09-17T16:05:44;11.10;99.90
7445;DHT22;3764;48.126;11.594;2022-09-17T16:08:22;11.10;99.90
7445;DHT22;3764;48.126;11.594;2022-09-17T16:10:50;11.10;99.90
7445;DHT22;3764;48.126;11.594;2022-09-17T16:13:18;11.10;99.90
7445;DHT22;3764;48.126;11.594;2022-09-17T16:15:45;11.10;99.90
7445;DHT22;3764;48.126;11.594;2022-09-17T16:18:14;11.10;99.90
7445;DHT22;3764;48.126;11.594;2022-09-17T16:20:51;11.10;99.90
7445;DHT22;3764;48.126;11.594;2022-09-17T16:23:22;11.00;99.90
7445;DHT22;3764;48.126;11.594;2022-09-17T16:25:50;11.00;99.90
7445;DHT22;3764;48.126;11.594;2022-09-17T16:28:18;11.00;99.90
7445;DHT22;3764;48.126;11.594;2022-09-17T16:31:03;10.90;99.90
7445;DHT22;3764;48.126;11.594;2022-09-17T16:33:45;10.90;99.90
7445;DHT22;3764;48.126;11.594;2022-09-17T16:36:54;10.90;99.90